sensor_id;sensor_type;location;lat;lon;timestamp;P1;durP1;ratioP1;P2;durP2;ratioP2
75441;SDS011;64019;48.312;14.226;2024-03-02T00:00:15;43.80;;;16.27;;
75441;SDS011;64019;48.312;14.226;2024-03-02T00:02:44;47.90;;;17.07;;
75441;SDS011;64019;48.312;14.226;2024-03-02T00:05:11;41.43;;;15.63;;
75441;SDS011;64019;48.312;14.226;2024-03-02T00:07:44;45.23;;;17.10;;
75441;SDS011;64019;48.312;14.226;2024-03-02T00:10:20;45.30;;;16.77;;
75441;SDS011;64019;48.312;14.226;2024-03-02T00:12:55;47.67;;;16.93;;
75441;SDS011;64019;48.312;14.226;2024-03-02T00:17:56;48.03;;;18.10;;
75441;SDS011;64019;48.312;14.226;2024-03-02T00:20:22;56.63;;;18.00;;
75441;SDS011;64019;48.312;14.226;2024-03-02T00:22:48;41.10;;;15.67;;
75441;SDS011;64019;48.312;14.226;2024-03-02T00:25:42;38.97;;;14.37;;
75441;SDS011;64019;48.312;14.226;2024-03-02T00:28:31;50.33;;;17.10;;
75441;SDS011;64019;48.312;14.226;2024-03-02T00:31:05;46.33;;;16.10;;
75441;SDS011;64019;48.312;14.226;2024-03-02T00:33:42;43.60;;;15.07;;
75441;SDS011;64019;48.312;14.226;2024-03-02T00:36:12;47.27;;;16.07;;
75441;SDS011;64019;48.312;14.226;2024-03-02T00:38:47;40.43;;;14.93;;
75441;SDS011;64019;48.312;14.226;2024-03-02T00:41:35;37.73;;;14.50;;
75441;SDS011;64019;48.312;14.226;2024-03-02T00:46:29;37.97;;;15.07;;
75441;SDS011;64019;48.312;14.226;2024-03-02T00:49:32;38.47;;;15.03;;
75441;SDS011;64019;48.312;14.226;2024-03-02T00:51:52;37.03;;;13.97;;
75441;SDS011;64019;48.312;14.226;2024-03-02T00:54:19;47.00;;;15.43;;
75441;SDS011;64019;48.312;14.226;2024-03-02T00:56:50;40.77;;;15.93;;
75441;SDS011;64019;48.312;14.226;2024-03-02T00:59:17;36.03;;;14.70;;
75441;SDS011;64019;48.312;14.226;2024-03-02T01:01:43;48.23;;;16.03;;
75441;SDS011;64019;48.312;14.226;2024-03-02T01:04:08;38.80;;;14.63;;
75441;SDS011;64019;48.312;14.226;2024-03-02T01:06:34;48.23;;;15.57;;
75441;SDS011;64019;48.312;14.226;2024-03-02T01:09:00;55.13;;;16.90;;
75441;SDS011;64019;48.312;14.226;2024-03-02T01:11:27;43.53;;;16.70;;
75441;SDS011;64019;48.312;14.226;2024-03-02T01:13:53;45.50;;;16.90;;
75441;SDS011;64019;48.312;14.226;2024-03-02T01:16:19;50.37;;;18.57;;
75441;SDS011;64019;48.312;14.226;2024-03-02T01:18:45;58.77;;;17.47;;
75441;SDS011;64019;48.312;14.226;2024-03-02T01:21:10;49.67;;;17.80;;
75441;SDS011;64019;48.312;14.226;2024-03-02T01:23:36;58.87;;;18.50;;
75441;SDS011;64019;48.312;14.226;2024-03-02T01:26:02;61.10;;;19.10;;
75441;SDS011;64019;48.312;14.226;2024-03-02T01:28:28;53.87;;;18.00;;
75441;SDS011;64019;48.312;14.226;2024-03-02T01:30:54;54.10;;;19.33;;
75441;SDS011;64019;48.312;14.226;2024-03-02T01:33:20;51.40;;;17.30;;
75441;SDS011;64019;48.312;14.226;2024-03-02T01:35:46;55.13;;;17.17;;
75441;SDS011;64019;48.312;14.226;2024-03-02T01:38:12;44.33;;;16.50;;
75441;SDS011;64019;48.312;14.226;2024-03-02T01:40:38;49.90;;;18.30;;
75441;SDS011;64019;48.312;14.226;2024-03-02T01:43:04;46.27;;;18.47;;
75441;SDS011;64019;48.312;14.226;2024-03-02T01:45:31;57.27;;;19.37;;
75441;SDS011;64019;48.312;14.226;2024-03-02T01:47:57;43.73;;;15.97;;
75441;SDS011;64019;48.312;14.226;2024-03-02T01:50:31;46.93;;;16.63;;
75441;SDS011;64019;48.312;14.226;2024-03-02T01:52:57;52.23;;;17.23;;
75441;SDS011;64019;48.312;14.226;2024-03-02T01:55:23;50.07;;;18.30;;
75441;SDS011;64019;48.312;14.226;2024-03-02T01:57:49;52.63;;;18.17;;
75441;SDS011;64019;48.312;14.226;2024-03-02T02:00:22;56.10;;;19.40;;
75441;SDS011;64019;48.312;14.226;2024-03-02T02:02:49;54.13;;;19.43;;
75441;SDS011;64019;48.312;14.226;2024-03-02T02:05:15;64.40;;;19.50;;
75441;SDS011;64019;48.312;14.226;2024-03-02T02:07:41;60.20;;;19.93;;
75441;SDS011;64019;48.312;14.226;2024-03-02T02:10:08;48.50;;;18.43;;
75441;SDS011;64019;48.312;14.226;2024-03-02T02:12:35;48.93;;;18.07;;
75441;SDS011;64019;48.312;14.226;2024-03-02T02:15:01;46.23;;;18.13;;
75441;SDS011;64019;48.312;14.226;2024-03-02T02:17:28;52.40;;;18.10;;
75441;SDS011;64019;48.312;14.226;2024-03-02T02:19:53;51.57;;;17.80;;
75441;SDS011;64019;48.312;14.226;2024-03-02T02:22:19;41.47;;;16.47;;
75441;SDS011;64019;48.312;14.226;2024-03-02T02:24:45;51.87;;;18.33;;
75441;SDS011;64019;48.312;14.226;2024-03-02T02:27:10;48.80;;;18.43;;
75441;SDS011;64019;48.312;14.226;2024-03-02T02:29:39;49.67;;;17.40;;
75441;SDS011;64019;48.312;14.226;2024-03-02T02:32:05;44.17;;;16.70;;
75441;SDS011;64019;48.312;14.226;2024-03-02T02:34:31;45.90;;;16.83;;
75441;SDS011;64019;48.312;14.226;2024-03-02T02:36:57;59.57;;;19.93;;
75441;SDS011;64019;48.312;14.226;2024-03-02T02:39:22;50.47;;;18.23;;
75441;SDS011;64019;48.312;14.226;2024-03-02T02:41:48;56.27;;;18.90;;
75441;SDS011;64019;48.312;14.226;2024-03-02T02:44:14;49.93;;;16.80;;
75441;SDS011;64019;48.312;14.226;2024-03-02T02:46:40;54.17;;;19.13;;
75441;SDS011;64019;48.312;14.226;2024-03-02T02:49:06;60.80;;;18.77;;
75441;SDS011;64019;48.312;14.226;2024-03-02T02:51:32;48.17;;;17.43;;
75441;SDS011;64019;48.312;14.226;2024-03-02T02:53:57;49.77;;;19.47;;
75441;SDS011;64019;48.312;14.226;2024-03-02T02:56:23;45.57;;;17.27;;
75441;SDS011;64019;48.312;14.226;2024-03-02T02:58:49;51.13;;;17.43;;
75441;SDS011;64019;48.312;14.226;2024-03-02T03:01:15;48.40;;;16.67;;
75441;SDS011;64019;48.312;14.226;2024-03-02T03:03:44;41.03;;;17.33;;
75441;SDS011;64019;48.312;14.226;2024-03-02T03:06:10;47.97;;;18.13;;
75441;SDS011;64019;48.312;14.226;2024-03-02T03:08:37;54.07;;;18.53;;
75441;SDS011;64019;48.312;14.226;2024-03-02T03:11:03;45.17;;;16.60;;
75441;SDS011;64019;48.312;14.226;2024-03-02T03:13:30;61.00;;;18.37;;
75441;SDS011;64019;48.312;14.226;2024-03-02T03:15:57;52.53;;;17.90;;
75441;SDS011;64019;48.312;14.226;2024-03-02T03:18:22;58.47;;;18.73;;
75441;SDS011;64019;48.312;14.226;2024-03-02T03:20:48;49.53;;;17.53;;
75441;SDS011;64019;48.312;14.226;2024-03-02T03:23:15;53.47;;;17.33;;
75441;SDS011;64019;48.312;14.226;2024-03-02T03:25:42;46.90;;;17.17;;
75441;SDS011;64019;48.312;14.226;2024-03-02T03:28:08;48.40;;;18.20;;
75441;SDS011;64019;48.312;14.226;2024-03-02T03:30:37;44.23;;;17.93;;
75441;SDS011;64019;48.312;14.226;2024-03-02T03:33:04;49.47;;;18.73;;
75441;SDS011;64019;48.312;14.226;2024-03-02T03:35:33;45.53;;;17.93;;
75441;SDS011;64019;48.312;14.226;2024-03-02T03:37:59;47.10;;;17.80;;
75441;SDS011;64019;48.312;14.226;2024-03-02T03:40:25;44.97;;;17.63;;
75441;SDS011;64019;48.312;14.226;2024-03-02T03:42:51;46.40;;;16.77;;
75441;SDS011;64019;48.312;14.226;2024-03-02T03:45:17;44.37;;;17.23;;
75441;SDS011;64019;48.312;14.226;2024-03-02T03:47:43;45.50;;;19.30;;
75441;SDS011;64019;48.312;14.226;2024-03-02T03:50:08;50.13;;;18.77;;
75441;SDS011;64019;48.312;14.226;2024-03-02T03:52:34;47.47;;;16.70;;
75441;SDS011;64019;48.312;14.226;2024-03-02T03:55:00;45.50;;;17.07;;
75441;SDS011;64019;48.312;14.226;2024-03-02T03:57:26;46.50;;;16.30;;
75441;SDS011;64019;48.312;14.226;2024-03-02T03:59:52;44.40;;;17.03;;
75441;SDS011;64019;48.312;14.226;2024-03-02T04:02:18;47.10;;;17.73;;
75441;SDS011;64019;48.312;14.226;2024-03-02T04:04:44;52.17;;;18.03;;
75441;SDS011;64019;48.312;14.226;2024-03-02T04:07:10;46.27;;;18.03;;
75441;SDS011;64019;48.312;14.226;2024-03-02T04:09:35;51.17;;;18.57;;
75441;SDS011;64019;48.312;14.226;2024-03-02T04:12:01;50.40;;;17.07;;
75441;SDS011;64019;48.312;14.226;2024-03-02T04:14:27;47.07;;;18.27;;
75441;SDS011;64019;48.312;14.226;2024-03-02T04:16:53;48.67;;;17.53;;
75441;SDS011;64019;48.312;14.226;2024-03-02T04:19:18;56.77;;;17.53;;
75441;SDS011;64019;48.312;14.226;2024-03-02T04:21:44;50.53;;;16.93;;
75441;SDS011;64019;48.312;14.226;2024-03-02T04:24:09;53.67;;;17.27;;
75441;SDS011;64019;48.312;14.226;2024-03-02T04:26:35;50.33;;;17.67;;
75441;SDS011;64019;48.312;14.226;2024-03-02T04:29:01;52.43;;;17.60;;
75441;SDS011;64019;48.312;14.226;2024-03-02T04:31:27;46.07;;;18.10;;
75441;SDS011;64019;48.312;14.226;2024-03-02T04:33:52;49.43;;;17.50;;
75441;SDS011;64019;48.312;14.226;2024-03-02T04:36:19;44.53;;;17.47;;
75441;SDS011;64019;48.312;14.226;2024-03-02T04:38:44;51.93;;;17.83;;
75441;SDS011;64019;48.312;14.226;2024-03-02T04:41:10;49.50;;;16.67;;
75441;SDS011;64019;48.312;14.226;2024-03-02T04:43:36;56.00;;;18.63;;
75441;SDS011;64019;48.312;14.226;2024-03-02T04:46:02;54.90;;;17.90;;
75441;SDS011;64019;48.312;14.226;2024-03-02T04:48:27;53.00;;;17.50;;
75441;SDS011;64019;48.312;14.226;2024-03-02T04:50:53;49.70;;;17.30;;
75441;SDS011;64019;48.312;14.226;2024-03-02T04:53:19;47.60;;;17.93;;
75441;SDS011;64019;48.312;14.226;2024-03-02T04:55:44;50.53;;;17.30;;
75441;SDS011;64019;48.312;14.226;2024-03-02T04:58:29;44.57;;;16.77;;
75441;SDS011;64019;48.312;14.226;2024-03-02T05:00:55;40.10;;;16.70;;
75441;SDS011;64019;48.312;14.226;2024-03-02T05:03:21;46.87;;;17.07;;
75441;SDS011;64019;48.312;14.226;2024-03-02T05:05:47;42.33;;;15.97;;
75441;SDS011;64019;48.312;14.226;2024-03-02T05:08:12;35.73;;;16.17;;
75441;SDS011;64019;48.312;14.226;2024-03-02T05:10:38;40.70;;;15.93;;
75441;SDS011;64019;48.312;14.226;2024-03-02T05:13:04;42.93;;;16.23;;
75441;SDS011;64019;48.312;14.226;2024-03-02T05:15:30;39.03;;;15.27;;
75441;SDS011;64019;48.312;14.226;2024-03-02T05:17:55;42.57;;;15.30;;
75441;SDS011;64019;48.312;14.226;2024-03-02T05:20:22;44.60;;;15.90;;
75441;SDS011;64019;48.312;14.226;2024-03-02T05:22:47;42.80;;;16.83;;
75441;SDS011;64019;48.312;14.226;2024-03-02T05:25:14;42.17;;;16.00;;
75441;SDS011;64019;48.312;14.226;2024-03-02T05:27:40;42.60;;;15.90;;
75441;SDS011;64019;48.312;14.226;2024-03-02T05:30:06;47.67;;;18.40;;
75441;SDS011;64019;48.312;14.226;2024-03-02T05:32:33;41.63;;;15.80;;
75441;SDS011;64019;48.312;14.226;2024-03-02T05:34:59;45.67;;;16.97;;
75441;SDS011;64019;48.312;14.226;2024-03-02T05:37:24;43.63;;;18.30;;
75441;SDS011;64019;48.312;14.226;2024-03-02T05:39:50;47.70;;;17.07;;
75441;SDS011;64019;48.312;14.226;2024-03-02T05:42:16;46.33;;;17.53;;
75441;SDS011;64019;48.312;14.226;2024-03-02T05:44:44;52.63;;;18.77;;
75441;SDS011;64019;48.312;14.226;2024-03-02T05:47:10;58.53;;;19.80;;
75441;SDS011;64019;48.312;14.226;2024-03-02T05:49:52;52.10;;;19.27;;
75441;SDS011;64019;48.312;14.226;2024-03-02T05:56:46;50.37;;;17.40;;
75441;SDS011;64019;48.312;14.226;2024-03-02T05:59:50;54.30;;;17.60;;
75441;SDS011;64019;48.312;14.226;2024-03-02T06:02:26;48.30;;;18.67;;
75441;SDS011;64019;48.312;14.226;2024-03-02T06:04:57;59.27;;;19.07;;
75441;SDS011;64019;48.312;14.226;2024-03-02T06:07:51;57.20;;;19.63;;
75441;SDS011;64019;48.312;14.226;2024-03-02T06:10:17;52.53;;;19.83;;
75441;SDS011;64019;48.312;14.226;2024-03-02T06:12:43;51.23;;;17.50;;
75441;SDS011;64019;48.312;14.226;2024-03-02T06:15:08;57.93;;;18.90;;
75441;SDS011;64019;48.312;14.226;2024-03-02T06:20:36;52.80;;;17.30;;
75441;SDS011;64019;48.312;14.226;2024-03-02T06:23:04;61.77;;;19.57;;
75441;SDS011;64019;48.312;14.226;2024-03-02T06:25:35;53.97;;;17.67;;
75441;SDS011;64019;48.312;14.226;2024-03-02T06:28:01;51.60;;;18.33;;
75441;SDS011;64019;48.312;14.226;2024-03-02T06:30:27;52.83;;;18.37;;
75441;SDS011;64019;48.312;14.226;2024-03-02T06:32:54;54.70;;;18.53;;
75441;SDS011;64019;48.312;14.226;2024-03-02T06:35:23;59.00;;;19.23;;
75441;SDS011;64019;48.312;14.226;2024-03-02T06:37:51;58.40;;;18.50;;
75441;SDS011;64019;48.312;14.226;2024-03-02T06:40:17;53.37;;;18.03;;
75441;SDS011;64019;48.312;14.226;2024-03-02T06:42:43;50.00;;;18.77;;
75441;SDS011;64019;48.312;14.226;2024-03-02T06:45:09;62.00;;;19.13;;
75441;SDS011;64019;48.312;14.226;2024-03-02T06:47:35;53.43;;;18.93;;
75441;SDS011;64019;48.312;14.226;2024-03-02T06:50:00;53.80;;;19.20;;
75441;SDS011;64019;48.312;14.226;2024-03-02T06:52:26;49.07;;;17.67;;
75441;SDS011;64019;48.312;14.226;2024-03-02T06:54:52;46.93;;;18.53;;
75441;SDS011;64019;48.312;14.226;2024-03-02T06:57:18;54.43;;;19.33;;
75441;SDS011;64019;48.312;14.226;2024-03-02T06:59:45;53.37;;;20.57;;
75441;SDS011;64019;48.312;14.226;2024-03-02T07:02:12;54.17;;;18.60;;
75441;SDS011;64019;48.312;14.226;2024-03-02T07:04:38;50.53;;;18.57;;
75441;SDS011;64019;48.312;14.226;2024-03-02T07:07:24;49.50;;;17.87;;
75441;SDS011;64019;48.312;14.226;2024-03-02T07:09:54;57.70;;;21.07;;
75441;SDS011;64019;48.312;14.226;2024-03-02T07:12:24;44.93;;;17.63;;
75441;SDS011;64019;48.312;14.226;2024-03-02T07:14:50;54.20;;;20.13;;
75441;SDS011;64019;48.312;14.226;2024-03-02T07:17:36;53.30;;;19.47;;
75441;SDS011;64019;48.312;14.226;2024-03-02T07:20:02;55.67;;;19.50;;
75441;SDS011;64019;48.312;14.226;2024-03-02T07:22:29;50.73;;;17.83;;
75441;SDS011;64019;48.312;14.226;2024-03-02T07:24:54;52.53;;;18.87;;
75441;SDS011;64019;48.312;14.226;2024-03-02T07:27:20;47.30;;;17.80;;
75441;SDS011;64019;48.312;14.226;2024-03-02T07:29:46;53.53;;;19.10;;
75441;SDS011;64019;48.312;14.226;2024-03-02T07:32:12;43.40;;;17.13;;
75441;SDS011;64019;48.312;14.226;2024-03-02T07:34:38;53.10;;;19.23;;
75441;SDS011;64019;48.312;14.226;2024-03-02T07:37:04;43.50;;;18.10;;
75441;SDS011;64019;48.312;14.226;2024-03-02T07:39:30;47.23;;;17.90;;
75441;SDS011;64019;48.312;14.226;2024-03-02T07:41:56;47.47;;;17.87;;
75441;SDS011;64019;48.312;14.226;2024-03-02T07:44:22;53.83;;;19.63;;
75441;SDS011;64019;48.312;14.226;2024-03-02T07:46:49;45.10;;;18.80;;
75441;SDS011;64019;48.312;14.226;2024-03-02T07:49:15;46.13;;;19.40;;
75441;SDS011;64019;48.312;14.226;2024-03-02T07:51:41;51.60;;;17.90;;
75441;SDS011;64019;48.312;14.226;2024-03-02T07:54:07;47.80;;;18.57;;
75441;SDS011;64019;48.312;14.226;2024-03-02T07:56:33;50.67;;;18.60;;
75441;SDS011;64019;48.312;14.226;2024-03-02T07:58:59;51.23;;;17.43;;
75441;SDS011;64019;48.312;14.226;2024-03-02T08:01:35;49.70;;;18.60;;
75441;SDS011;64019;48.312;14.226;2024-03-02T08:04:01;50.60;;;18.43;;
75441;SDS011;64019;48.312;14.226;2024-03-02T08:06:29;44.67;;;18.53;;
75441;SDS011;64019;48.312;14.226;2024-03-02T08:08:58;46.97;;;18.97;;
75441;SDS011;64019;48.312;14.226;2024-03-02T08:11:25;54.20;;;19.40;;
75441;SDS011;64019;48.312;14.226;2024-03-02T08:13:56;55.93;;;20.00;;
75441;SDS011;64019;48.312;14.226;2024-03-02T08:16:24;50.87;;;19.87;;
75441;SDS011;64019;48.312;14.226;2024-03-02T08:18:50;52.50;;;19.23;;
75441;SDS011;64019;48.312;14.226;2024-03-02T08:21:17;53.23;;;18.77;;
75441;SDS011;64019;48.312;14.226;2024-03-02T08:23:43;44.47;;;17.80;;
75441;SDS011;64019;48.312;14.226;2024-03-02T08:26:09;50.03;;;18.57;;
75441;SDS011;64019;48.312;14.226;2024-03-02T08:28:36;56.43;;;18.57;;
75441;SDS011;64019;48.312;14.226;2024-03-02T08:31:03;52.30;;;18.67;;
75441;SDS011;64019;48.312;14.226;2024-03-02T08:33:29;49.40;;;19.83;;
75441;SDS011;64019;48.312;14.226;2024-03-02T08:35:55;50.40;;;18.07;;
75441;SDS011;64019;48.312;14.226;2024-03-02T08:38:21;45.50;;;16.90;;
75441;SDS011;64019;48.312;14.226;2024-03-02T08:40:47;49.07;;;18.50;;
75441;SDS011;64019;48.312;14.226;2024-03-02T08:43:14;53.77;;;19.43;;
75441;SDS011;64019;48.312;14.226;2024-03-02T08:45:40;56.40;;;19.80;;
75441;SDS011;64019;48.312;14.226;2024-03-02T08:48:09;43.97;;;17.40;;
75441;SDS011;64019;48.312;14.226;2024-03-02T08:50:35;44.93;;;17.57;;
75441;SDS011;64019;48.312;14.226;2024-03-02T08:53:02;46.83;;;17.63;;
75441;SDS011;64019;48.312;14.226;2024-03-02T08:55:29;48.63;;;17.20;;
75441;SDS011;64019;48.312;14.226;2024-03-02T08:57:54;49.37;;;18.53;;
75441;SDS011;64019;48.312;14.226;2024-03-02T09:00:20;52.40;;;20.00;;
75441;SDS011;64019;48.312;14.226;2024-03-02T09:02:47;43.67;;;19.27;;
75441;SDS011;64019;48.312;14.226;2024-03-02T09:05:12;46.87;;;17.53;;
75441;SDS011;64019;48.312;14.226;2024-03-02T09:07:38;42.60;;;17.00;;
75441;SDS011;64019;48.312;14.226;2024-03-02T09:10:04;42.17;;;17.17;;
75441;SDS011;64019;48.312;14.226;2024-03-02T09:12:31;41.97;;;15.70;;
75441;SDS011;64019;48.312;14.226;2024-03-02T09:14:57;45.57;;;15.53;;
75441;SDS011;64019;48.312;14.226;2024-03-02T09:17:24;43.53;;;16.50;;
75441;SDS011;64019;48.312;14.226;2024-03-02T09:19:49;42.40;;;17.37;;
75441;SDS011;64019;48.312;14.226;2024-03-02T09:22:18;46.30;;;17.27;;
75441;SDS011;64019;48.312;14.226;2024-03-02T09:24:44;46.17;;;16.60;;
75441;SDS011;64019;48.312;14.226;2024-03-02T09:27:09;44.70;;;17.23;;
75441;SDS011;64019;48.312;14.226;2024-03-02T09:29:35;44.70;;;16.60;;
75441;SDS011;64019;48.312;14.226;2024-03-02T09:32:01;48.87;;;17.80;;
75441;SDS011;64019;48.312;14.226;2024-03-02T09:34:27;46.10;;;16.73;;
75441;SDS011;64019;48.312;14.226;2024-03-02T09:36:53;41.87;;;15.73;;
75441;SDS011;64019;48.312;14.226;2024-03-02T09:39:18;42.80;;;16.03;;
75441;SDS011;64019;48.312;14.226;2024-03-02T09:41:44;42.40;;;15.53;;
75441;SDS011;64019;48.312;14.226;2024-03-02T09:44:10;40.40;;;16.03;;
75441;SDS011;64019;48.312;14.226;2024-03-02T09:46:36;43.27;;;17.00;;
75441;SDS011;64019;48.312;14.226;2024-03-02T09:49:02;45.70;;;17.50;;
75441;SDS011;64019;48.312;14.226;2024-03-02T09:51:28;51.20;;;18.40;;
75441;SDS011;64019;48.312;14.226;2024-03-02T09:53:54;47.57;;;17.83;;
75441;SDS011;64019;48.312;14.226;2024-03-02T09:56:23;44.50;;;17.50;;
75441;SDS011;64019;48.312;14.226;2024-03-02T09:58:49;55.43;;;18.63;;
75441;SDS011;64019;48.312;14.226;2024-03-02T10:01:14;47.90;;;17.93;;
75441;SDS011;64019;48.312;14.226;2024-03-02T10:03:40;55.83;;;20.37;;
75441;SDS011;64019;48.312;14.226;2024-03-02T10:06:22;48.37;;;17.83;;
75441;SDS011;64019;48.312;14.226;2024-03-02T10:08:48;38.47;;;15.83;;
75441;SDS011;64019;48.312;14.226;2024-03-02T10:16:42;44.57;;;17.37;;
75441;SDS011;64019;48.312;14.226;2024-03-02T10:21:48;48.17;;;17.53;;
75441;SDS011;64019;48.312;14.226;2024-03-02T10:24:22;45.50;;;17.90;;
75441;SDS011;64019;48.312;14.226;2024-03-02T10:26:48;47.10;;;18.40;;
75441;SDS011;64019;48.312;14.226;2024-03-02T10:29:14;55.10;;;18.13;;
75441;SDS011;64019;48.312;14.226;2024-03-02T10:31:41;47.17;;;18.77;;
75441;SDS011;64019;48.312;14.226;2024-03-02T10:34:09;53.70;;;18.67;;
75441;SDS011;64019;48.312;14.226;2024-03-02T10:36:35;60.20;;;21.00;;
75441;SDS011;64019;48.312;14.226;2024-03-02T10:39:05;48.43;;;19.40;;
75441;SDS011;64019;48.312;14.226;2024-03-02T10:41:32;48.03;;;19.17;;
75441;SDS011;64019;48.312;14.226;2024-03-02T10:43:59;48.50;;;19.47;;
75441;SDS011;64019;48.312;14.226;2024-03-02T10:46:32;61.90;;;20.73;;
75441;SDS011;64019;48.312;14.226;2024-03-02T10:49:00;54.53;;;19.87;;
75441;SDS011;64019;48.312;14.226;2024-03-02T10:51:28;49.27;;;18.40;;
75441;SDS011;64019;48.312;14.226;2024-03-02T10:53:56;48.80;;;19.07;;
75441;SDS011;64019;48.312;14.226;2024-03-02T10:56:27;45.47;;;18.03;;
75441;SDS011;64019;48.312;14.226;2024-03-02T10:59:01;49.13;;;18.67;;
75441;SDS011;64019;48.312;14.226;2024-03-02T11:01:32;55.53;;;18.97;;
75441;SDS011;64019;48.312;14.226;2024-03-02T11:03:59;51.10;;;18.53;;
75441;SDS011;64019;48.312;14.226;2024-03-02T11:06:28;46.57;;;19.67;;
75441;SDS011;64019;48.312;14.226;2024-03-02T11:08:55;46.00;;;19.20;;
75441;SDS011;64019;48.312;14.226;2024-03-02T11:11:28;41.97;;;17.87;;
75441;SDS011;64019;48.312;14.226;2024-03-02T11:13:57;46.43;;;18.30;;
75441;SDS011;64019;48.312;14.226;2024-03-02T11:16:36;42.13;;;17.43;;
75441;SDS011;64019;48.312;14.226;2024-03-02T11:19:10;45.20;;;17.53;;
75441;SDS011;64019;48.312;14.226;2024-03-02T11:21:38;42.93;;;17.93;;
75441;SDS011;64019;48.312;14.226;2024-03-02T11:26:49;52.87;;;19.43;;
75441;SDS011;64019;48.312;14.226;2024-03-02T11:32:04;45.67;;;18.50;;
75441;SDS011;64019;48.312;14.226;2024-03-02T11:34:41;49.80;;;19.03;;
75441;SDS011;64019;48.312;14.226;2024-03-02T11:37:11;56.30;;;20.70;;
75441;SDS011;64019;48.312;14.226;2024-03-02T11:39:39;52.57;;;19.33;;
75441;SDS011;64019;48.312;14.226;2024-03-02T11:42:05;56.30;;;20.90;;
75441;SDS011;64019;48.312;14.226;2024-03-02T11:44:35;56.20;;;20.47;;
75441;SDS011;64019;48.312;14.226;2024-03-02T11:47:02;56.77;;;20.33;;
75441;SDS011;64019;48.312;14.226;2024-03-02T11:49:39;59.00;;;23.03;;
75441;SDS011;64019;48.312;14.226;2024-03-02T11:52:07;66.20;;;22.57;;
75441;SDS011;64019;48.312;14.226;2024-03-02T11:54:34;61.43;;;23.70;;
75441;SDS011;64019;48.312;14.226;2024-03-02T11:57:11;69.50;;;25.43;;
75441;SDS011;64019;48.312;14.226;2024-03-02T11:59:39;59.07;;;24.13;;
75441;SDS011;64019;48.312;14.226;2024-03-02T12:02:05;62.37;;;23.63;;
75441;SDS011;64019;48.312;14.226;2024-03-02T12:04:31;64.07;;;23.43;;
75441;SDS011;64019;48.312;14.226;2024-03-02T12:07:00;60.77;;;23.43;;
75441;SDS011;64019;48.312;14.226;2024-03-02T12:09:29;65.83;;;22.60;;
75441;SDS011;64019;48.312;14.226;2024-03-02T12:12:05;58.60;;;19.73;;
75441;SDS011;64019;48.312;14.226;2024-03-02T12:14:31;58.80;;;19.23;;
75441;SDS011;64019;48.312;14.226;2024-03-02T12:16:58;49.80;;;19.17;;
75441;SDS011;64019;48.312;14.226;2024-03-02T12:19:25;53.37;;;20.10;;
75441;SDS011;64019;48.312;14.226;2024-03-02T12:21:52;67.50;;;21.90;;
75441;SDS011;64019;48.312;14.226;2024-03-02T12:24:19;61.97;;;21.90;;
75441;SDS011;64019;48.312;14.226;2024-03-02T12:26:46;58.57;;;21.33;;
75441;SDS011;64019;48.312;14.226;2024-03-02T12:29:13;55.13;;;21.37;;
75441;SDS011;64019;48.312;14.226;2024-03-02T12:31:40;64.17;;;21.47;;
75441;SDS011;64019;48.312;14.226;2024-03-02T12:34:07;58.13;;;20.30;;
75441;SDS011;64019;48.312;14.226;2024-03-02T12:36:37;56.03;;;19.37;;
75441;SDS011;64019;48.312;14.226;2024-03-02T12:39:03;54.87;;;20.67;;
75441;SDS011;64019;48.312;14.226;2024-03-02T12:41:29;62.33;;;19.90;;
75441;SDS011;64019;48.312;14.226;2024-03-02T12:43:55;53.80;;;18.87;;
75441;SDS011;64019;48.312;14.226;2024-03-02T12:46:21;52.77;;;18.93;;
75441;SDS011;64019;48.312;14.226;2024-03-02T12:48:47;52.77;;;19.57;;
75441;SDS011;64019;48.312;14.226;2024-03-02T12:51:12;43.23;;;16.90;;
75441;SDS011;64019;48.312;14.226;2024-03-02T12:53:39;46.40;;;16.50;;
75441;SDS011;64019;48.312;14.226;2024-03-02T12:56:05;35.53;;;16.90;;
75441;SDS011;64019;48.312;14.226;2024-03-02T12:58:38;34.30;;;14.37;;
75441;SDS011;64019;48.312;14.226;2024-03-02T13:01:07;34.17;;;14.30;;
75441;SDS011;64019;48.312;14.226;2024-03-02T13:03:40;34.70;;;14.03;;
75441;SDS011;64019;48.312;14.226;2024-03-02T13:06:06;34.23;;;13.50;;
75441;SDS011;64019;48.312;14.226;2024-03-02T13:08:33;36.20;;;14.33;;
75441;SDS011;64019;48.312;14.226;2024-03-02T13:10:59;32.87;;;14.13;;
75441;SDS011;64019;48.312;14.226;2024-03-02T13:13:24;42.63;;;15.03;;
75441;SDS011;64019;48.312;14.226;2024-03-02T13:15:50;41.60;;;15.20;;
75441;SDS011;64019;48.312;14.226;2024-03-02T13:18:21;32.97;;;13.80;;
75441;SDS011;64019;48.312;14.226;2024-03-02T13:20:47;32.17;;;14.23;;
75441;SDS011;64019;48.312;14.226;2024-03-02T13:23:13;28.30;;;12.87;;
75441;SDS011;64019;48.312;14.226;2024-03-02T13:25:39;27.37;;;12.20;;
75441;SDS011;64019;48.312;14.226;2024-03-02T13:28:05;30.70;;;12.87;;
75441;SDS011;64019;48.312;14.226;2024-03-02T13:30:32;24.03;;;11.37;;
75441;SDS011;64019;48.312;14.226;2024-03-02T13:32:58;29.97;;;11.80;;
75441;SDS011;64019;48.312;14.226;2024-03-02T13:35:23;28.30;;;12.40;;
75441;SDS011;64019;48.312;14.226;2024-03-02T13:37:49;27.17;;;11.83;;
75441;SDS011;64019;48.312;14.226;2024-03-02T13:40:15;26.63;;;11.13;;
75441;SDS011;64019;48.312;14.226;2024-03-02T13:42:45;27.23;;;11.83;;
75441;SDS011;64019;48.312;14.226;2024-03-02T13:45:12;25.70;;;11.80;;
75441;SDS011;64019;48.312;14.226;2024-03-02T13:47:38;23.40;;;11.07;;
75441;SDS011;64019;48.312;14.226;2024-03-02T13:50:04;28.50;;;11.70;;
75441;SDS011;64019;48.312;14.226;2024-03-02T13:52:31;24.87;;;10.53;;
75441;SDS011;64019;48.312;14.226;2024-03-02T13:54:56;27.07;;;11.33;;
75441;SDS011;64019;48.312;14.226;2024-03-02T13:57:22;21.77;;;9.87;;
75441;SDS011;64019;48.312;14.226;2024-03-02T13:59:48;26.60;;;11.00;;
75441;SDS011;64019;48.312;14.226;2024-03-02T14:02:14;19.73;;;9.97;;
75441;SDS011;64019;48.312;14.226;2024-03-02T14:04:40;20.23;;;9.90;;
75441;SDS011;64019;48.312;14.226;2024-03-02T14:07:06;24.20;;;10.40;;
75441;SDS011;64019;48.312;14.226;2024-03-02T14:09:32;23.20;;;10.87;;
75441;SDS011;64019;48.312;14.226;2024-03-02T14:11:58;25.13;;;10.70;;
75441;SDS011;64019;48.312;14.226;2024-03-02T14:14:25;20.50;;;9.50;;
75441;SDS011;64019;48.312;14.226;2024-03-02T14:16:52;24.73;;;9.60;;
75441;SDS011;64019;48.312;14.226;2024-03-02T14:19:18;28.20;;;10.90;;
75441;SDS011;64019;48.312;14.226;2024-03-02T14:21:44;22.37;;;10.23;;
75441;SDS011;64019;48.312;14.226;2024-03-02T14:24:10;21.20;;;10.43;;
75441;SDS011;64019;48.312;14.226;2024-03-02T14:26:36;20.23;;;9.83;;
75441;SDS011;64019;48.312;14.226;2024-03-02T14:29:02;18.47;;;8.40;;
75441;SDS011;64019;48.312;14.226;2024-03-02T14:31:29;21.73;;;10.17;;
75441;SDS011;64019;48.312;14.226;2024-03-02T14:33:56;19.63;;;9.93;;
75441;SDS011;64019;48.312;14.226;2024-03-02T14:36:21;22.13;;;9.70;;